sensor_id;sensor_type;location;lat;lon;timestamp;temperature;humidity
30069;DHT22;16894;49.456;10.644;2022-12-08T00:01:12;1.80;99.90
30069;DHT22;16894;49.456;10.644;2022-12-08T00:03:38;1.80;99.90
30069;DHT22;16894;49.456;10.644;2022-12-08T00:06:05;1.80;99.90
30069;DHT22;16894;49.456;10.644;2022-12-08T00:08:49;1.80;99.90
30069;DHT22;16894;49.456;10.644;2022-12-08T00:11:34;1.80;99.90
30069;DHT22;16894;49.456;10.644;2022-12-08T00:14:00;1.80;99.90
30069;DHT22;16894;49.456;10.644;2022-12-08T00:16:26;1.90;99.90
30069;DHT22;16894;49.456;10.644;2022-12-08T00:18:51;1.90;99.90
30069;DHT22;16894;49.456;10.644;2022-12-08T00:21:17;1.80;99.90
30069;DHT22;16894;49.456;10.644;2022-12-08T00:23:42;1.80;99.90
30069;DHT22;16894;49.456;10.644;2022-12-08T00:26:08;1.80;99.90
30069;DHT22;16894;49.456;10.644;2022-12-08T00:28:34;1.80;99.90
30069;DHT22;16894;49.456;10.644;2022-12-08T00:31:06;1.70;99.90
30069;DHT22;16894;49.456;10.644;2022-12-08T00:33:33;1.70;99.90
30069;DHT22;16894;49.456;10.644;2022-12-08T00:36:13;1.60;99.90
30069;DHT22;16894;49.456;10.644;2022-12-08T00:38:39;1.60;99.90
30069;DHT22;16894;49.456;10.644;2022-12-08T00:41:12;1.50;99.90
30069;DHT22;16894;49.456;10.644;2022-12-08T00:43:38;1.50;99.90
30069;DHT22;16894;49.456;10.644;2022-12-08T00:46:04;1.50;99.90
30069;DHT22;16894;49.456;10.644;2022-12-08T00:48:30;1.50;99.90
30069;DHT22;16894;49.456;10.644;2022-12-08T00:50:55;1.50;99.90
30069;DHT22;16894;49.456;10.644;2022-12-08T00:53:21;1.50;99.90
30069;DHT22;16894;49.456;10.644;2022-12-08T00:55:46;1.40;99.90
30069;DHT22;16894;49.456;10.644;2022-12-08T00:58:12;1.40;99.90
30069;DHT22;16894;49.456;10.644;2022-12-08T01:00:40;1.40;99.90
30069;DHT22;16894;49.456;10.644;2022-12-08T01:03:09;1.30;99.90
30069;DHT22;16894;49.456;10.644;2022-12-08T01:05:35;1.30;99.90
30069;DHT22;16894;49.456;10.644;2022-12-08T01:08:00;1.30;99.90
30069;DHT22;16894;49.456;10.644;2022-12-08T01:10:26;1.20;99.90
30069;DHT22;16894;49.456;10.644;2022-12-08T01:12:51;1.20;99.90
30069;DHT22;16894;49.456;10.644;2022-12-08T01:15:17;1.10;99.90
30069;DHT22;16894;49.456;10.644;2022-12-08T01:17:42;1.20;99.90
30069;DHT22;16894;49.456;10.644;2022-12-08T01:20:08;1.10;99.90
30069;DHT22;16894;49.456;10.644;2022-12-08T01:22:34;1.10;99.90
30069;DHT22;16894;49.456;10.644;2022-12-08T01:25:02;1.10;99.90
30069;DHT22;16894;49.456;10.644;2022-12-08T01:27:28;1.10;99.90
30069;DHT22;16894;49.456;10.644;2022-12-08T01:29:54;1.10;99.90
30069;DHT22;16894;49.456;10.644;2022-12-08T01:32:19;1.10;99.90
30069;DHT22;16894;49.456;10.644;2022-12-08T01:34:45;1.00;99.90
30069;DHT22;16894;49.456;10.644;2022-12-08T01:37:10;1.00;99.90
30069;DHT22;16894;49.456;10.644;2022-12-08T01:39:37;1.00;99.90
30069;DHT22;16894;49.456;10.644;2022-12-08T01:42:02;0.90;99.90
30069;DHT22;16894;49.456;10.644;2022-12-08T01:46:54;0.90;99.90
30069;DHT22;16894;49.456;10.644;2022-12-08T01:49:24;0.90;99.90
30069;DHT22;16894;49.456;10.644;2022-12-08T01:52:15;0.90;99.90
30069;DHT22;16894;49.456;10.644;2022-12-08T01:54:46;0.90;99.90
30069;DHT22;16894;49.456;10.644;2022-12-08T01:57:19;0.90;99.90
30069;DHT22;16894;49.456;10.644;2022-12-08T01:59:50;0.90;99.90
30069;DHT22;16894;49.456;10.644;2022-12-08T02:02:18;0.80;99.90
30069;DHT22;16894;49.456;10.644;2022-12-08T02:04:43;0.80;99.90
30069;DHT22;16894;49.456;10.644;2022-12-08T02:07:11;0.90;99.90
30069;DHT22;16894;49.456;10.644;2022-12-08T02:09:39;0.90;99.90
30069;DHT22;16894;49.456;10.644;2022-12-08T02:12:05;0.90;99.90
30069;DHT22;16894;49.456;10.644;2022-12-08T02:14:31;0.90;99.90
30069;DHT22;16894;49.456;10.644;2022-12-08T02:17:07;0.90;99.90
30069;DHT22;16894;49.456;10.644;2022-12-08T02:22:38;0.90;99.90
30069;DHT22;16894;49.456;10.644;2022-12-08T02:25:18;0.90;99.90
30069;DHT22;16894;49.456;10.644;2022-12-08T02:28:01;0.80;99.90
30069;DHT22;16894;49.456;10.644;2022-12-08T02:33:58;0.70;99.90
30069;DHT22;16894;49.456;10.644;2022-12-08T02:36:28;0.60;99.90
30069;DHT22;16894;49.456;10.644;2022-12-08T02:41:53;0.70;99.90
30069;DHT22;16894;49.456;10.644;2022-12-08T02:44:37;0.80;99.90
30069;DHT22;16894;49.456;10.644;2022-12-08T02:47:17;0.80;99.90
30069;DHT22;16894;49.456;10.644;2022-12-08T02:49:43;0.90;99.90
30069;DHT22;16894;49.456;10.644;2022-12-08T02:54:49;0.90;99.90
30069;DHT22;16894;49.456;10.644;2022-12-08T03:02:44;0.90;99.90
30069;DHT22;16894;49.456;10.644;2022-12-08T03:11:08;0.90;99.90
30069;DHT22;16894;49.456;10.644;2022-12-08T03:13:44;1.00;99.90
30069;DHT22;16894;49.456;10.644;2022-12-08T03:16:15;1.00;99.90
30069;DHT22;16894;49.456;10.644;2022-12-08T03:18:47;1.00;99.90
30069;DHT22;16894;49.456;10.644;2022-12-08T03:21:14;1.00;99.90
30069;DHT22;16894;49.456;10.644;2022-12-08T03:23:43;1.00;99.90
30069;DHT22;16894;49.456;10.644;2022-12-08T03:26:17;1.00;99.90
30069;DHT22;16894;49.456;10.644;2022-12-08T03:28:43;1.00;99.90
30069;DHT22;16894;49.456;10.644;2022-12-08T03:31:12;1.00;99.90
30069;DHT22;16894;49.456;10.644;2022-12-08T03:33:41;1.10;99.90
30069;DHT22;16894;49.456;10.644;2022-12-08T03:36:09;1.00;99.90
30069;DHT22;16894;49.456;10.644;2022-12-08T03:38:42;1.10;99.90
30069;DHT22;16894;49.456;10.644;2022-12-08T03:41:09;1.10;99.90
30069;DHT22;16894;49.456;10.644;2022-12-08T03:46:15;1.20;99.90
30069;DHT22;16894;49.456;10.644;2022-12-08T03:48:41;1.20;99.90
30069;DHT22;16894;49.456;10.644;2022-12-08T03:51:07;1.20;99.90
30069;DHT22;16894;49.456;10.644;2022-12-08T03:53:33;1.30;99.90
30069;DHT22;16894;49.456;10.644;2022-12-08T03:55:59;1.30;99.90
30069;DHT22;16894;49.456;10.644;2022-12-08T03:58:25;1.30;99.90
30069;DHT22;16894;49.456;10.644;2022-12-08T04:00:50;1.30;99.90
30069;DHT22;16894;49.456;10.644;2022-12-08T04:03:18;1.30;99.90
30069;DHT22;16894;49.456;10.644;2022-12-08T04:05:45;1.20;99.90
30069;DHT22;16894;49.456;10.644;2022-12-08T04:08:10;1.20;99.90
30069;DHT22;16894;49.456;10.644;2022-12-08T04:10:36;1.20;99.90
30069;DHT22;16894;49.456;10.644;2022-12-08T04:13:02;1.20;99.90
30069;DHT22;16894;49.456;10.644;2022-12-08T04:15:27;1.20;99.90
30069;DHT22;16894;49.456;10.644;2022-12-08T04:17:53;1.10;99.90
30069;DHT22;16894;49.456;10.644;2022-12-08T04:20:18;1.10;99.90
30069;DHT22;16894;49.456;10.644;2022-12-08T04:22:44;1.10;99.90
30069;DHT22;16894;49.456;10.644;2022-12-08T04:25:09;1.10;99.90
30069;DHT22;16894;49.456;10.644;2022-12-08T04:27:35;1.10;99.90
30069;DHT22;16894;49.456;10.644;2022-12-08T04:30:01;1.10;99.90
30069;DHT22;16894;49.456;10.644;2022-12-08T04:32:26;1.10;99.90
30069;DHT22;16894;49.456;10.644;2022-12-08T04:34:52;1.10;99.90
30069;DHT22;16894;49.456;10.644;2022-12-08T04:37:18;1.20;99.90
30069;DHT22;16894;49.456;10.644;2022-12-08T04:39:43;1.20;99.90
30069;DHT22;16894;49.456;10.644;2022-12-08T04:42:09;1.20;99.90
30069;DHT22;16894;49.456;10.644;2022-12-08T04:44:34;1.20;99.90
30069;DHT22;16894;49.456;10.644;2022-12-08T04:47:00;1.30;99.90
30069;DHT22;16894;49.456;10.644;2022-12-08T04:49:25;1.30;99.90
30069;DHT22;16894;49.456;10.644;2022-12-08T04:51:51;1.30;99.90
30069;DHT22;16894;49.456;10.644;2022-12-08T04:54:16;1.30;99.90
30069;DHT22;16894;49.456;10.644;2022-12-08T04:56:42;1.30;99.90
30069;DHT22;16894;49.456;10.644;2022-12-08T04:59:08;1.30;99.90
30069;DHT22;16894;49.456;10.644;2022-12-08T05:01:33;1.30;99.90
30069;DHT22;16894;49.456;10.644;2022-12-08T05:03:59;1.30;99.90
30069;DHT22;16894;49.456;10.644;2022-12-08T05:06:24;1.40;99.90
30069;DHT22;16894;49.456;10.644;2022-12-08T05:08:50;1.40;99.90
30069;DHT22;16894;49.456;10.644;2022-12-08T05:11:16;1.40;99.90
30069;DHT22;16894;49.456;10.644;2022-12-08T05:13:41;1.40;99.90
30069;DHT22;16894;49.456;10.644;2022-12-08T05:16:10;1.40;99.90
30069;DHT22;16894;49.456;10.644;2022-12-08T05:18:36;1.40;99.90
30069;DHT22;16894;49.456;10.644;2022-12-08T05:21:02;1.50;99.90
30069;DHT22;16894;49.456;10.644;2022-12-08T05:23:28;1.40;99.90
30069;DHT22;16894;49.456;10.644;2022-12-08T05:25:54;1.50;99.90
30069;DHT22;16894;49.456;10.644;2022-12-08T05:28:20;1.40;99.90
30069;DHT22;16894;49.456;10.644;2022-12-08T05:30:46;1.40;99.90
30069;DHT22;16894;49.456;10.644;2022-12-08T05:33:12;1.40;99.90
30069;DHT22;16894;49.456;10.644;2022-12-08T05:35:37;1.50;99.90
30069;DHT22;16894;49.456;10.644;2022-12-08T05:38:03;1.40;99.90
30069;DHT22;16894;49.456;10.644;2022-12-08T05:40:29;1.40;99.90
30069;DHT22;16894;49.456;10.644;2022-12-08T05:42:55;1.40;99.90
30069;DHT22;16894;49.456;10.644;2022-12-08T05:45:20;1.40;99.90
30069;DHT22;16894;49.456;10.644;2022-12-08T05:47:46;1.40;99.90
30069;DHT22;16894;49.456;10.644;2022-12-08T05:50:11;1.40;99.90
30069;DHT22;16894;49.456;10.644;2022-12-08T05:52:37;1.40;99.90
30069;DHT22;16894;49.456;10.644;2022-12-08T05:55:03;1.50;99.90
30069;DHT22;16894;49.456;10.644;2022-12-08T05:57:29;1.40;99.90
30069;DHT22;16894;49.456;10.644;2022-12-08T05:59:54;1.50;99.90
30069;DHT22;16894;49.456;10.644;2022-12-08T06:02:21;1.50;99.90
30069;DHT22;16894;49.456;10.644;2022-12-08T06:04:47;1.40;99.90
30069;DHT22;16894;49.456;10.644;2022-12-08T06:07:12;1.50;99.90
30069;DHT22;16894;49.456;10.644;2022-12-08T06:09:38;1.50;99.90
30069;DHT22;16894;49.456;10.644;2022-12-08T06:12:03;1.50;99.90
30069;DHT22;16894;49.456;10.644;2022-12-08T06:14:29;1.50;99.90
30069;DHT22;16894;49.456;10.644;2022-12-08T06:16:54;1.50;99.90
30069;DHT22;16894;49.456;10.644;2022-12-08T06:19:20;1.50;99.90
30069;DHT22;16894;49.456;10.644;2022-12-08T06:21:46;1.50;99.90
30069;DHT22;16894;49.456;10.644;2022-12-08T06:24:11;1.50;99.90
30069;DHT22;16894;49.456;10.644;2022-12-08T06:26:37;1.50;99.90
30069;DHT22;16894;49.456;10.644;2022-12-08T06:29:04;1.50;99.90
30069;DHT22;16894;49.456;10.644;2022-12-08T06:31:30;1.50;99.90
30069;DHT22;16894;49.456;10.644;2022-12-08T06:33:55;1.50;99.90
30069;DHT22;16894;49.456;10.644;2022-12-08T06:36:24;1.50;99.90
30069;DHT22;16894;49.456;10.644;2022-12-08T06:38:50;1.50;99.90
30069;DHT22;16894;49.456;10.644;2022-12-08T06:41:16;1.60;99.90
30069;DHT22;16894;49.456;10.644;2022-12-08T06:43:42;1.50;99.90
30069;DHT22;16894;49.456;10.644;2022-12-08T06:46:11;1.50;99.90
30069;DHT22;16894;49.456;10.644;2022-12-08T06:48:37;1.50;99.90
30069;DHT22;16894;49.456;10.644;2022-12-08T06:53:51;1.60;99.90
30069;DHT22;16894;49.456;10.644;2022-12-08T06:56:35;1.60;99.90
30069;DHT22;16894;49.456;10.644;2022-12-08T06:59:00;1.50;99.90
30069;DHT22;16894;49.456;10.644;2022-12-08T07:01:27;1.50;99.90
30069;DHT22;16894;49.456;10.644;2022-12-08T07:03:53;1.60;99.90
30069;DHT22;16894;49.456;10.644;2022-12-08T07:06:21;1.60;99.90
30069;DHT22;16894;49.456;10.644;2022-12-08T07:08:47;1.60;99.90
30069;DHT22;16894;49.456;10.644;2022-12-08T07:11:13;1.60;99.90
30069;DHT22;16894;49.456;10.644;2022-12-08T07:13:38;1.60;99.90
30069;DHT22;16894;49.456;10.644;2022-12-08T07:16:09;1.60;99.90
30069;DHT22;16894;49.456;10.644;2022-12-08T07:18:35;1.60;99.90
30069;DHT22;16894;49.456;10.644;2022-12-08T07:21:02;1.60;99.90
30069;DHT22;16894;49.456;10.644;2022-12-08T07:23:28;1.60;99.90
30069;DHT22;16894;49.456;10.644;2022-12-08T07:25:53;1.60;99.90
30069;DHT22;16894;49.456;10.644;2022-12-08T07:28:19;1.60;99.90
30069;DHT22;16894;49.456;10.644;2022-12-08T07:30:44;1.60;99.90
30069;DHT22;16894;49.456;10.644;2022-12-08T07:33:10;1.60;99.90
30069;DHT22;16894;49.456;10.644;2022-12-08T07:35:35;1.60;99.90
30069;DHT22;16894;49.456;10.644;2022-12-08T07:38:01;1.60;99.90
30069;DHT22;16894;49.456;10.644;2022-12-08T07:40:27;1.60;99.90
30069;DHT22;16894;49.456;10.644;2022-12-08T07:42:53;1.60;99.90
30069;DHT22;16894;49.456;10.644;2022-12-08T07:45:19;1.60;99.90
30069;DHT22;16894;49.456;10.644;2022-12-08T07:47:45;1.70;99.90
30069;DHT22;16894;49.456;10.644;2022-12-08T07:50:11;1.70;99.90
30069;DHT22;16894;49.456;10.644;2022-12-08T07:52:36;1.70;99.90
30069;DHT22;16894;49.456;10.644;2022-12-08T07:55:02;1.70;99.90
30069;DHT22;16894;49.456;10.644;2022-12-08T07:57:28;1.70;99.90
30069;DHT22;16894;49.456;10.644;2022-12-08T07:59:53;1.70;99.90
30069;DHT22;16894;49.456;10.644;2022-12-08T08:02:19;1.70;99.90
30069;DHT22;16894;49.456;10.644;2022-12-08T08:04:49;1.80;99.90
30069;DHT22;16894;49.456;10.644;2022-12-08T08:07:14;1.80;99.90
30069;DHT22;16894;49.456;10.644;2022-12-08T08:09:40;1.80;99.90
30069;DHT22;16894;49.456;10.644;2022-12-08T08:12:05;1.80;99.90
30069;DHT22;16894;49.456;10.644;2022-12-08T08:14:31;1.90;99.90
30069;DHT22;16894;49.456;10.644;2022-12-08T08:16:57;1.90;99.90
30069;DHT22;16894;49.456;10.644;2022-12-08T08:19:22;1.90;99.90
30069;DHT22;16894;49.456;10.644;2022-12-08T08:21:48;1.90;99.90
30069;DHT22;16894;49.456;10.644;2022-12-08T08:24:13;1.90;99.90
30069;DHT22;16894;49.456;10.644;2022-12-08T08:26:39;2.00;99.90
30069;DHT22;16894;49.456;10.644;2022-12-08T08:29:05;2.00;99.90
30069;DHT22;16894;49.456;10.644;2022-12-08T08:31:30;2.00;99.90
30069;DHT22;16894;49.456;10.644;2022-12-08T08:33:56;2.00;99.90
30069;DHT22;16894;49.456;10.644;2022-12-08T08:36:22;2.10;99.90
30069;DHT22;16894;49.456;10.644;2022-12-08T08:38:47;2.10;99.90
30069;DHT22;16894;49.456;10.644;2022-12-08T08:41:13;2.10;99.90
30069;DHT22;16894;49.456;10.644;2022-12-08T08:43:39;2.10;99.90
30069;DHT22;16894;49.456;10.644;2022-12-08T08:46:05;2.10;99.90
30069;DHT22;16894;49.456;10.644;2022-12-08T08:48:33;2.10;99.90
30069;DHT22;16894;49.456;10.644;2022-12-08T08:51:06;2.20;99.90
30069;DHT22;16894;49.456;10.644;2022-12-08T08:53:32;2.20;99.90
30069;DHT22;16894;49.456;10.644;2022-12-08T08:55:58;2.20;99.90
30069;DHT22;16894;49.456;10.644;2022-12-08T08:58:24;2.20;99.90
30069;DHT22;16894;49.456;10.644;2022-12-08T09:00:49;2.30;99.90
30069;DHT22;16894;49.456;10.644;2022-12-08T09:03:15;2.30;99.90
30069;DHT22;16894;49.456;10.644;2022-12-08T09:05:40;2.40;99.90
30069;DHT22;16894;49.456;10.644;2022-12-08T09:08:07;2.50;99.90
30069;DHT22;16894;49.456;10.644;2022-12-08T09:10:32;2.50;99.90
30069;DHT22;16894;49.456;10.644;2022-12-08T09:12:58;2.50;99.90
30069;DHT22;16894;49.456;10.644;2022-12-08T09:15:24;2.50;99.90
30069;DHT22;16894;49.456;10.644;2022-12-08T09:17:49;2.50;99.90
30069;DHT22;16894;49.456;10.644;2022-12-08T09:20:15;2.50;99.90
30069;DHT22;16894;49.456;10.644;2022-12-08T09:22:40;2.50;99.90
30069;DHT22;16894;49.456;10.644;2022-12-08T09:25:06;2.50;99.90
30069;DHT22;16894;49.456;10.644;2022-12-08T09:27:32;2.50;99.90
30069;DHT22;16894;49.456;10.644;2022-12-08T09:29:58;2.60;99.90
30069;DHT22;16894;49.456;10.644;2022-12-08T09:32:23;2.60;99.90
30069;DHT22;16894;49.456;10.644;2022-12-08T09:34:49;2.70;99.90
30069;DHT22;16894;49.456;10.644;2022-12-08T09:37:16;2.70;99.90
30069;DHT22;16894;49.456;10.644;2022-12-08T09:39:41;2.70;99.90
30069;DHT22;16894;49.456;10.644;2022-12-08T09:42:09;2.70;99.90
30069;DHT22;16894;49.456;10.644;2022-12-08T09:44:56;2.70;99.90
30069;DHT22;16894;49.456;10.644;2022-12-08T09:47:57;2.80;99.90
30069;DHT22;16894;49.456;10.644;2022-12-08T09:50:34;2.80;99.90
30069;DHT22;16894;49.456;10.644;2022-12-08T09:53:08;2.80;99.90
30069;DHT22;16894;49.456;10.644;2022-12-08T09:55:51;2.80;99.90
30069;DHT22;16894;49.456;10.644;2022-12-08T09:58:26;2.90;99.90
30069;DHT22;16894;49.456;10.644;2022-12-08T10:00:54;3.00;99.90
30069;DHT22;16894;49.456;10.644;2022-12-08T10:03:23;3.00;99.90
30069;DHT22;16894;49.456;10.644;2022-12-08T10:11:28;3.20;99.90
30069;DHT22;16894;49.456;10.644;2022-12-08T10:16:41;3.30;99.90
30069;DHT22;16894;49.456;10.644;2022-12-08T10:19:18;3.30;99.90
30069;DHT22;16894;49.456;10.644;2022-12-08T10:21:44;3.30;99.90
30069;DHT22;16894;49.456;10.644;2022-12-08T10:24:33;3.30;99.90
30069;DHT22;16894;49.456;10.644;2022-12-08T10:27:00;3.30;99.90
30069;DHT22;16894;49.456;10.644;2022-12-08T10:29:26;3.30;99.90
30069;DHT22;16894;49.456;10.644;2022-12-08T10:31:52;3.40;99.90
30069;DHT22;16894;49.456;10.644;2022-12-08T10:34:20;3.40;99.90
30069;DHT22;16894;49.456;10.644;2022-12-08T10:36:52;3.60;99.90
30069;DHT22;16894;49.456;10.644;2022-12-08T10:39:41;3.70;99.90
30069;DHT22;16894;49.456;10.644;2022-12-08T10:47:39;4.00;99.90
30069;DHT22;16894;49.456;10.644;2022-12-08T10:52:41;4.10;99.90
30069;DHT22;16894;49.456;10.644;2022-12-08T10:55:15;4.20;99.90
30069;DHT22;16894;49.456;10.644;2022-12-08T10:57:41;4.20;99.90
30069;DHT22;16894;49.456;10.644;2022-12-08T11:00:14;4.30;99.90
30069;DHT22;16894;49.456;10.644;2022-12-08T11:02:53;4.30;99.90
30069;DHT22;16894;49.456;10.644;2022-12-08T11:05:21;4.30;99.90
30069;DHT22;16894;49.456;10.644;2022-12-08T11:07:52;4.30;99.90
30069;DHT22;16894;49.456;10.644;2022-12-08T11:10:20;4.30;99.90
30069;DHT22;16894;49.456;10.644;2022-12-08T11:12:50;4.20;99.90
30069;DHT22;16894;49.456;10.644;2022-12-08T11:15:17;4.20;99.90
30069;DHT22;16894;49.456;10.644;2022-12-08T11:17:43;4.20;99.90
30069;DHT22;16894;49.456;10.644;2022-12-08T11:22:51;4.10;99.90
30069;DHT22;16894;49.456;10.644;2022-12-08T11:25:23;4.10;99.90
30069;DHT22;16894;49.456;10.644;2022-12-08T11:27:56;4.10;99.90
30069;DHT22;16894;49.456;10.644;2022-12-08T11:30:33;4.10;99.90
30069;DHT22;16894;49.456;10.644;2022-12-08T11:33:22;4.20;99.90
30069;DHT22;16894;49.456;10.644;2022-12-08T11:36:04;4.10;99.90
30069;DHT22;16894;49.456;10.644;2022-12-08T11:38:32;4.00;99.90
30069;DHT22;16894;49.456;10.644;2022-12-08T11:41:04;4.10;99.90
30069;DHT22;16894;49.456;10.644;2022-12-08T11:46:07;3.80;99.90
30069;DHT22;16894;49.456;10.644;2022-12-08T11:48:50;3.80;99.90
30069;DHT22;16894;49.456;10.644;2022-12-08T11:51:28;3.80;99.90
30069;DHT22;16894;49.456;10.644;2022-12-08T11:56:51;3.60;99.90
30069;DHT22;16894;49.456;10.644;2022-12-08T11:59:50;3.60;99.90
30069;DHT22;16894;49.456;10.644;2022-12-08T12:02:42;3.70;99.90
30069;DHT22;16894;49.456;10.644;2022-12-08T12:17:38;4.00;99.90
30069;DHT22;16894;49.456;10.644;2022-12-08T12:25:31;4.20;99.90
30069;DHT22;16894;49.456;10.644;2022-12-08T12:28:02;4.20;99.90
30069;DHT22;16894;49.456;10.644;2022-12-08T12:30:57;4.20;99.90
30069;DHT22;16894;49.456;10.644;2022-12-08T12:33:21;4.20;99.90
30069;DHT22;16894;49.456;10.644;2022-12-08T12:35:47;4.20;99.90
30069;DHT22;16894;49.456;10.644;2022-12-08T12:38:39;4.00;99.90
30069;DHT22;16894;49.456;10.644;2022-12-08T12:57:24;3.70;99.90
30069;DHT22;16894;49.456;10.644;2022-12-08T13:08:03;3.40;99.90
30069;DHT22;16894;49.456;10.644;2022-12-08T13:10:58;3.50;99.90
30069;DHT22;16894;49.456;10.644;2022-12-08T13:13:25;3.60;99.90
30069;DHT22;16894;49.456;10.644;2022-12-08T13:15:58;3.80;99.90
30069;DHT22;16894;49.456;10.644;2022-12-08T13:18:40;3.80;99.90
30069;DHT22;16894;49.456;10.644;2022-12-08T13:21:13;3.80;99.90
30069;DHT22;16894;49.456;10.644;2022-12-08T13:26:12;3.80;99.90
30069;DHT22;16894;49.456;10.644;2022-12-08T13:31:37;3.90;99.90
30069;DHT22;16894;49.456;10.644;2022-12-08T13:34:16;3.90;99.90
30069;DHT22;16894;49.456;10.644;2022-12-08T13:36:51;3.90;99.90
30069;DHT22;16894;49.456;10.644;2022-12-08T13:42:23;3.90;99.90
30069;DHT22;16894;49.456;10.644;2022-12-08T13:47:43;3.90;99.90
30069;DHT22;16894;49.456;10.644;2022-12-08T13:52:56;3.90;99.90
30069;DHT22;16894;49.456;10.644;2022-12-08T13:55:41;3.80;99.90
30069;DHT22;16894;49.456;10.644;2022-12-08T13:58:18;3.80;99.90
30069;DHT22;16894;49.456;10.644;2022-12-08T14:01:13;3.70;99.90
30069;DHT22;16894;49.456;10.644;2022-12-08T14:03:53;3.60;99.90
30069;DHT22;16894;49.456;10.644;2022-12-08T14:06:34;3.50;99.90
30069;DHT22;16894;49.456;10.644;2022-12-08T14:09:02;3.50;99.90
30069;DHT22;16894;49.456;10.644;2022-12-08T14:11:34;3.50;99.90
30069;DHT22;16894;49.456;10.644;2022-12-08T14:14:20;3.50;99.90
30069;DHT22;16894;49.456;10.644;2022-12-08T14:17:03;3.40;99.90
30069;DHT22;16894;49.456;10.644;2022-12-08T14:19:32;3.40;99.90
30069;DHT22;16894;49.456;10.644;2022-12-08T14:22:08;3.40;99.90
30069;DHT22;16894;49.456;10.644;2022-12-08T14:24:35;3.40;99.90
30069;DHT22;16894;49.456;10.644;2022-12-08T14:27:03;3.40;99.90
30069;DHT22;16894;49.456;10.644;2022-12-08T14:29:41;3.30;99.90
30069;DHT22;16894;49.456;10.644;2022-12-08T14:32:27;3.30;99.90
30069;DHT22;16894;49.456;10.644;2022-12-08T14:35:00;3.30;99.90
30069;DHT22;16894;49.456;10.644;2022-12-08T14:37:32;3.30;99.90
30069;DHT22;16894;49.456;10.644;2022-12-08T14:45:29;3.30;99.90
30069;DHT22;16894;49.456;10.644;2022-12-08T14:48:24;3.30;99.90
30069;DHT22;16894;49.456;10.644;2022-12-08T14:54:04;3.20;99.90
30069;DHT22;16894;49.456;10.644;2022-12-08T14:56:50;3.20;99.90
30069;DHT22;16894;49.456;10.644;2022-12-08T14:59:31;3.10;99.90
30069;DHT22;16894;49.456;10.644;2022-12-08T15:04:53;3.10;99.90
30069;DHT22;16894;49.456;10.644;2022-12-08T15:07:22;3.10;99.90
30069;DHT22;16894;49.456;10.644;2022-12-08T15:12:39;3.10;99.90
30069;DHT22;16894;49.456;10.644;2022-12-08T15:17:48;3.00;99.90
30069;DHT22;16894;49.456;10.644;2022-12-08T15:23:35;3.00;99.90
30069;DHT22;16894;49.456;10.644;2022-12-08T15:26:04;3.00;99.90
30069;DHT22;16894;49.456;10.644;2022-12-08T15:28:30;3.00;99.90
30069;DHT22;16894;49.456;10.644;2022-12-08T15:30:56;2.90;99.90
30069;DHT22;16894;49.456;10.644;2022-12-08T15:33:21;2.90;99.90
30069;DHT22;16894;49.456;10.644;2022-12-08T15:35:48;2.90;99.90
30069;DHT22;16894;49.456;10.644;2022-12-08T15:38:25;2.90;99.90
30069;DHT22;16894;49.456;10.644;2022-12-08T15:40:52;2.80;99.90
30069;DHT22;16894;49.456;10.644;2022-12-08T15:43:18;2.90;99.90
30069;DHT22;16894;49.456;10.644;2022-12-08T15:45:44;2.80;99.90
30069;DHT22;16894;49.456;10.644;2022-12-08T15:48:18;2.80;99.90
30069;DHT22;16894;49.456;10.644;2022-12-08T15:50:44;2.80;99.90
30069;DHT22;16894;49.456;10.644;2022-12-08T15:53:10;2.80;99.90
30069;DHT22;16894;49.456;10.644;2022-12-08T15:55:36;2.80;99.90
30069;DHT22;16894;49.456;10.644;2022-12-08T15:58:02;2.90;99.90
30069;DHT22;16894;49.456;10.644;2022-12-08T16:00:32;2.80;99.90
30069;DHT22;16894;49.456;10.644;2022-12-08T16:02:59;2.80;99.90
30069;DHT22;16894;49.456;10.644;2022-12-08T16:05:26;2.80;99.90
30069;DHT22;16894;49.456;10.644;2022-12-08T16:07:53;2.80;99.90
30069;DHT22;16894;49.456;10.644;2022-12-08T16:10:24;2.80;99.90
30069;DHT22;16894;49.456;10.644;2022-12-08T16:12:50;2.80;99.90
30069;DHT22;16894;49.456;10.644;2022-12-08T16:15:40;2.80;99.90
30069;DHT22;16894;49.456;10.644;2022-12-08T16:18:15;2.80;99.90
30069;DHT22;16894;49.456;10.644;2022-12-08T16:20:41;2.80;99.90
30069;DHT22;16894;49.456;10.644;2022-12-08T16:23:07;2.70;99.90
30069;DHT22;16894;49.456;10.644;2022-12-08T16:25:33;2.70;99.90
30069;DHT22;16894;49.456;10.644;2022-12-08T16:27:59;2.80;99.90
30069;DHT22;16894;49.456;10.644;2022-12-08T16:30:24;2.80;99.90
30069;DHT22;16894;49.456;10.644;2022-12-08T16:32:50;2.80;99.90
30069;DHT22;16894;49.456;10.644;2022-12-08T16:35:15;2.80;99.90
30069;DHT22;16894;49.456;10.644;2022-12-08T16:37:41;2.80;99.90
30069;DHT22;16894;49.456;10.644;2022-12-08T16:40:07;2.70;99.90
30069;DHT22;16894;49.456;10.644;2022-12-08T16:42:34;2.70;99.90
30069;DHT22;16894;49.456;10.644;2022-12-08T16:45:21;2.70;99.90
30069;DHT22;16894;49.456;10.644;2022-12-08T16:47:49;2.60;99.90
30069;DHT22;16894;49.456;10.644;2022-12-08T16:50:34;2.60;99.90
30069;DHT22;16894;49.456;10.644;2022-12-08T16:53:06;2.60;99.90
30069;DHT22;16894;49.456;10.644;2022-12-08T16:55:33;2.60;99.90
30069;DHT22;16894;49.456;10.644;2022-12-08T16:57:59;2.50;99.90
30069;DHT22;16894;49.456;10.644;2022-12-08T17:00:27;2.50;99.90
30069;DHT22;16894;49.456;10.644;2022-12-08T17:02:55;2.50;99.90
30069;DHT22;16894;49.456;10.644;2022-12-08T17:05:22;2.50;99.90
30069;DHT22;16894;49.456;10.644;2022-12-08T17:07:49;2.40;99.90
30069;DHT22;16894;49.456;10.644;2022-12-08T17:10:18;2.50;99.90
30069;DHT22;16894;49.456;10.644;2022-12-08T17:12:44;2.40;99.90
30069;DHT22;16894;49.456;10.644;2022-12-08T17:15:13;2.40;99.90
30069;DHT22;16894;49.456;10.644;2022-12-08T17:17:39;2.40;99.90
30069;DHT22;16894;49.456;10.644;2022-12-08T17:20:17;2.40;99.90
30069;DHT22;16894;49.456;10.644;2022-12-08T17:22:44;2.40;99.90
30069;DHT22;16894;49.456;10.644;2022-12-08T17:25:10;2.40;99.90
30069;DHT22;16894;49.456;10.644;2022-12-08T17:27:36;2.30;99.90
30069;DHT22;16894;49.456;10.644;2022-12-08T17:30:03;2.40;99.90
30069;DHT22;16894;49.456;10.644;2022-12-08T17:32:28;2.30;99.90
30069;DHT22;16894;49.456;10.644;2022-12-08T17:34:54;2.30;99.90
30069;DHT22;16894;49.456;10.644;2022-12-08T17:37:20;2.40;99.90
30069;DHT22;16894;49.456;10.644;2022-12-08T17:39:45;2.50;99.90
30069;DHT22;16894;49.456;10.644;2022-12-08T17:42:11;2.50;99.90
30069;DHT22;16894;49.456;10.644;2022-12-08T17:44:36;2.50;99.90
30069;DHT22;16894;49.456;10.644;2022-12-08T17:47:03;2.40;99.90
30069;DHT22;16894;49.456;10.644;2022-12-08T17:49:29;2.40;99.90
30069;DHT22;16894;49.456;10.644;2022-12-08T17:51:59;2.40;99.90
30069;DHT22;16894;49.456;10.644;2022-12-08T17:54:25;2.40;99.90